createdAt,value
2022-10-31T00:02:10.128Z,15.70
2022-10-31T00:07:14.830Z,15.60
2022-10-31T00:12:18.259Z,15.60
2022-10-31T00:17:21.621Z,15.60
2022-10-31T00:22:26.947Z,15.60
2022-10-31T00:27:30.240Z,15.60
2022-10-31T00:32:33.645Z,15.60
2022-10-31T00:37:38.520Z,15.50
2022-10-31T00:42:42.646Z,15.50
2022-10-31T00:47:46.008Z,15.50
2022-10-31T00:52:50.715Z,15.50
2022-10-31T00:57:54.049Z,15.40
2022-10-31T01:02:58.102Z,15.40
2022-10-31T01:08:03.001Z,15.30
2022-10-31T01:13:06.333Z,15.20
2022-10-31T01:18:09.616Z,15.20
2022-10-31T01:23:14.235Z,15.20
2022-10-31T01:28:17.632Z,15.20
2022-10-31T01:33:21.284Z,15.20
2022-10-31T01:38:26.187Z,15.20
2022-10-31T01:43:44.909Z,15.20
2022-10-31T01:48:49.705Z,15.10
2022-10-31T01:53:56.659Z,15.10
2022-10-31T01:59:02.806Z,15.10
2022-10-31T02:04:07.318Z,15.00
2022-10-31T02:09:14.701Z,14.70
2022-10-31T02:14:18.112Z,14.60
2022-10-31T02:19:28.416Z,14.60
2022-10-31T02:24:48.215Z,14.70
2022-10-31T02:30:14.326Z,14.70
2022-10-31T02:35:30.274Z,14.70
2022-10-31T02:40:37.940Z,14.70
2022-10-31T02:45:46.110Z,14.70
2022-10-31T02:50:56.199Z,14.70
2022-10-31T02:56:03.440Z,14.70
2022-10-31T03:01:36.960Z,14.60
2022-10-31T03:06:47.769Z,14.50
2022-10-31T03:11:59.274Z,14.50
2022-10-31T03:17:08.070Z,14.50
2022-10-31T03:22:19.619Z,14.50
2022-10-31T03:27:26.555Z,14.50
2022-10-31T03:32:34.565Z,14.40
2022-10-31T03:37:41.197Z,14.30
2022-10-31T03:42:50.386Z,14.30
2022-10-31T03:47:55.639Z,14.30
2022-10-31T03:53:06.345Z,14.30
2022-10-31T03:58:14.338Z,14.20
2022-10-31T04:03:22.582Z,14.20
2022-10-31T04:08:31.777Z,14.10
2022-10-31T04:13:39.405Z,14.10
2022-10-31T04:18:43.264Z,14.00
2022-10-31T04:23:47.980Z,14.10
2022-10-31T04:28:51.256Z,14.00
2022-10-31T04:33:54.942Z,14.00
2022-10-31T04:38:59.540Z,14.00
2022-10-31T04:44:02.902Z,14.10
2022-10-31T04:49:06.216Z,14.10
2022-10-31T04:54:11.159Z,14.10
2022-10-31T04:59:14.471Z,14.00
2022-10-31T05:04:17.784Z,14.00
2022-10-31T05:09:22.773Z,14.00
2022-10-31T05:14:26.068Z,14.00
2022-10-31T05:19:29.379Z,14.00
2022-10-31T05:24:34.297Z,14.00
2022-10-31T05:29:37.624Z,13.90
2022-10-31T05:34:40.921Z,13.90
2022-10-31T05:39:45.797Z,13.90
2022-10-31T05:44:49.113Z,13.90
2022-10-31T05:49:52.694Z,13.90
2022-10-31T05:54:57.353Z,13.90
2022-10-31T06:00:00.961Z,13.90
2022-10-31T06:05:05.162Z,13.90
2022-10-31T06:10:11.278Z,13.90
2022-10-31T06:15:16.134Z,13.80
2022-10-31T06:20:22.588Z,13.80
2022-10-31T06:25:27.420Z,13.80
2022-10-31T06:30:31.138Z,13.80
2022-10-31T06:35:34.639Z,13.80
2022-10-31T06:40:39.306Z,13.80
2022-10-31T06:45:42.844Z,13.80
2022-10-31T06:50:46.671Z,13.90
2022-10-31T06:55:51.438Z,13.90
2022-10-31T07:00:54.809Z,14.00
2022-10-31T07:05:58.916Z,14.00
2022-10-31T07:11:04.656Z,14.10
2022-10-31T07:16:08.752Z,14.10
2022-10-31T07:21:12.082Z,14.20
2022-10-31T07:26:16.808Z,14.30
2022-10-31T07:31:20.432Z,14.40
2022-10-31T07:36:23.825Z,14.40
2022-10-31T07:41:28.562Z,14.40
2022-10-31T07:46:32.273Z,14.50
2022-10-31T07:51:35.988Z,14.60
2022-10-31T07:56:40.779Z,14.70
2022-10-31T08:01:44.510Z,14.90
2022-10-31T08:06:49.385Z,15.00
2022-10-31T08:11:55.588Z,15.10
2022-10-31T08:16:58.874Z,15.30
2022-10-31T08:22:02.268Z,15.40
2022-10-31T08:27:07.046Z,15.50
2022-10-31T08:32:10.391Z,15.70
2022-10-31T08:37:13.702Z,15.80
2022-10-31T08:42:18.472Z,16.00
2022-10-31T08:47:23.146Z,16.10
2022-10-31T08:52:51.134Z,16.30
2022-10-31T08:57:57.302Z,16.40
2022-10-31T09:03:02.123Z,16.60
2022-10-31T09:08:09.440Z,16.70
2022-10-31T09:13:18.662Z,16.90
2022-10-31T09:18:24.246Z,17.00
2022-10-31T09:23:27.874Z,17.10
2022-10-31T09:28:33.457Z,17.30
2022-10-31T09:33:36.825Z,17.50
2022-10-31T09:38:40.425Z,17.70
2022-10-31T09:43:55.144Z,17.80
2022-10-31T09:49:15.347Z,17.90
2022-10-31T09:54:23.869Z,18.20
2022-10-31T09:59:32.765Z,18.40
2022-10-31T10:04:41.693Z,18.60
2022-10-31T10:09:45.156Z,18.80
2022-10-31T10:15:02.749Z,18.90
2022-10-31T10:20:20.797Z,19.10
2022-10-31T10:25:25.749Z,19.40
2022-10-31T10:30:36.264Z,19.50
2022-10-31T10:35:45.107Z,19.70
2022-10-31T10:40:49.448Z,19.80
2022-10-31T10:46:41.009Z,19.90
2022-10-31T10:57:29.217Z,20.30
2022-10-31T11:02:35.157Z,20.50
2022-10-31T11:07:42.145Z,20.60
2022-10-31T11:12:48.121Z,20.70
2022-10-31T11:17:56.401Z,20.90
2022-10-31T11:23:06.165Z,21.00
2022-10-31T11:28:11.806Z,21.20
2022-10-31T11:33:21.921Z,21.30
2022-10-31T11:38:31.870Z,21.50
2022-10-31T11:43:35.494Z,21.60
2022-10-31T11:48:40.611Z,21.80
2022-10-31T11:53:56.810Z,21.90
2022-10-31T11:59:06.600Z,21.90
2022-10-31T12:04:13.491Z,22.10
2022-10-31T12:09:23.258Z,22.20
2022-10-31T12:14:35.823Z,22.20
2022-10-31T12:19:51.244Z,22.30
2022-10-31T12:25:15.955Z,22.40
2022-10-31T12:30:22.469Z,22.40
2022-10-31T12:40:58.364Z,22.70
2022-10-31T12:46:03.196Z,22.80
2022-10-31T12:51:16.919Z,22.80
2022-10-31T12:56:42.770Z,22.90
2022-10-31T13:01:51.902Z,23.00
2022-10-31T13:07:02.053Z,23.10
2022-10-31T13:12:11.044Z,23.20
2022-10-31T13:17:23.026Z,23.20
2022-10-31T13:22:32.754Z,23.30
2022-10-31T13:27:46.089Z,23.40
2022-10-31T13:32:55.376Z,23.40
2022-10-31T13:38:13.700Z,23.30
2022-10-31T13:43:25.868Z,23.20
2022-10-31T13:48:40.062Z,23.30
2022-10-31T13:54:00.023Z,23.20
2022-10-31T13:59:16.013Z,23.10
2022-10-31T14:04:25.266Z,23.00
2022-10-31T14:09:34.733Z,22.90
2022-10-31T14:14:48.611Z,22.90
2022-10-31T14:20:27.437Z,22.80
2022-10-31T14:25:34.677Z,22.60
2022-10-31T14:30:38.615Z,22.60
2022-10-31T14:35:53.877Z,22.50
2022-10-31T14:41:18.860Z,22.50
2022-10-31T14:46:33.655Z,22.50
2022-10-31T14:51:42.666Z,22.50
2022-10-31T14:56:52.086Z,22.40
2022-10-31T15:01:59.900Z,22.30
2022-10-31T15:07:07.160Z,22.30
2022-10-31T15:12:27.438Z,22.30
2022-10-31T15:17:30.779Z,22.20
2022-10-31T15:22:34.442Z,22.10
2022-10-31T15:27:42.786Z,22.00
2022-10-31T15:32:55.304Z,21.90
2022-10-31T15:38:03.075Z,21.80
2022-10-31T15:43:08.719Z,21.70
2022-10-31T15:48:19.159Z,21.60
2022-10-31T15:53:27.536Z,21.50
2022-10-31T15:58:34.685Z,21.40
2022-10-31T16:03:37.981Z,21.30
2022-10-31T16:08:50.317Z,21.10
2022-10-31T16:14:01.245Z,21.00
2022-10-31T16:19:07.374Z,20.90
2022-10-31T16:24:20.186Z,20.70
2022-10-31T16:29:38.350Z,20.60
2022-10-31T16:34:41.936Z,20.50
2022-10-31T16:39:45.265Z,20.40
2022-10-31T16:44:50.862Z,20.30
2022-10-31T16:49:54.274Z,20.20
2022-10-31T16:54:57.655Z,20.00
2022-10-31T17:00:02.358Z,19.90
2022-10-31T17:05:06.236Z,19.80
2022-10-31T17:10:11.513Z,19.70
2022-10-31T17:15:28.828Z,19.60
2022-10-31T17:20:33.009Z,19.50
2022-10-31T17:25:36.810Z,19.30
2022-10-31T17:30:42.059Z,19.30
2022-10-31T17:35:46.218Z,19.20
2022-10-31T17:40:49.622Z,19.00
2022-10-31T17:45:54.374Z,19.00
2022-10-31T17:51:01.511Z,18.90
2022-10-31T17:56:07.035Z,18.80
2022-10-31T18:01:13.921Z,18.80
2022-10-31T18:06:18.197Z,18.70
2022-10-31T18:11:22.870Z,18.70
2022-10-31T18:16:28.393Z,18.60
2022-10-31T18:21:32.341Z,18.40
2022-10-31T18:26:35.998Z,18.30
2022-10-31T18:31:40.740Z,18.20
2022-10-31T18:36:44.072Z,18.20
2022-10-31T18:41:47.455Z,18.10
2022-10-31T18:46:52.336Z,18.00
2022-10-31T18:51:55.866Z,18.00
2022-10-31T18:56:59.205Z,17.90
2022-10-31T19:02:03.997Z,17.90
2022-10-31T19:07:07.409Z,17.80
2022-10-31T19:12:10.733Z,17.80
2022-10-31T19:17:15.759Z,17.70
2022-10-31T19:22:19.068Z,17.70
2022-10-31T19:27:22.686Z,17.60
2022-10-31T19:32:27.484Z,17.50
2022-10-31T19:37:30.785Z,17.50
2022-10-31T19:42:34.166Z,17.50
2022-10-31T19:47:39.233Z,17.40
2022-10-31T19:52:43.146Z,17.40
2022-10-31T19:58:01.248Z,17.30
2022-10-31T20:03:07.263Z,17.20
2022-10-31T20:08:15.416Z,17.10
2022-10-31T20:13:18.689Z,17.10
2022-10-31T20:23:31.778Z,17.10
2022-10-31T20:28:39.961Z,17.10
2022-10-31T20:33:48.333Z,17.00
2022-10-31T20:38:52.460Z,17.00
2022-10-31T20:43:55.793Z,16.90
2022-10-31T20:49:00.443Z,16.80
2022-10-31T20:54:03.768Z,16.70
2022-10-31T20:59:08.128Z,16.70
2022-10-31T21:04:13.099Z,16.60
2022-10-31T21:09:17.702Z,16.60
2022-10-31T21:14:21.438Z,16.50
2022-10-31T21:19:26.083Z,16.50
2022-10-31T21:24:29.645Z,16.50
2022-10-31T21:29:33.352Z,16.40
2022-10-31T21:34:38.273Z,16.40
2022-10-31T21:39:42.494Z,16.30
2022-10-31T21:44:47.979Z,16.20
2022-10-31T21:49:52.665Z,16.20
2022-10-31T21:54:56.235Z,16.20
2022-10-31T21:59:59.576Z,16.10
2022-10-31T22:05:04.651Z,16.00
2022-10-31T22:10:09.033Z,15.90
2022-10-31T22:15:12.444Z,15.90
2022-10-31T22:20:17.564Z,15.80
2022-10-31T22:25:20.888Z,15.80
2022-10-31T22:30:24.414Z,15.80
2022-10-31T22:35:29.096Z,15.80
2022-10-31T22:40:34.279Z,15.70
2022-10-31T22:45:37.895Z,15.70
2022-10-31T22:50:42.608Z,15.60
2022-10-31T22:55:46.183Z,15.60
2022-10-31T23:00:49.709Z,15.50
2022-10-31T23:05:58.223Z,15.50
2022-10-31T23:11:01.527Z,15.50
2022-10-31T23:16:06.847Z,15.50
2022-10-31T23:21:31.480Z,15.50
2022-10-31T23:26:52.166Z,15.50
2022-10-31T23:31:55.598Z,15.50
2022-10-31T23:37:00.301Z,15.40
2022-10-31T23:42:03.954Z,15.40
2022-10-31T23:47:07.539Z,15.40
2022-10-31T23:52:13.003Z,15.40
2022-10-31T23:57:17.351Z,15.30
